Time,TemperatureF,DewpointF,PressureIn,WindDirection,WindDirectionDegrees,WindSpeedMPH,WindSpeedGustMPH,Humidity,HourlyPrecipIn,Conditions,Clouds,dailyrainin,SoftwareType,DateUTC
2013-02-14 00:03:00,34.4,32.9,30.53,SE,145,0.0,4.0,94,0.00,,,0.00,Wunderground v.1.15,2013-02-14 08:03:00,
2013-02-14 00:09:00,34.4,32.9,30.54,SE,145,0.0,4.0,94,0.00,,,0.00,Wunderground v.1.15,2013-02-14 08:09:00,
2013-02-14 00:15:00,34.4,32.9,30.54,SE,145,0.0,0.0,94,0.00,,,0.00,Wunderground v.1.15,2013-02-14 08:15:00,
2013-02-14 00:20:00,34.3,32.8,30.54,SE,145,0.0,0.0,94,0.00,,,0.00,Wunderground v.1.15,2013-02-14 08:20:00,
2013-02-14 00:26:00,34.3,32.8,30.55,SE,145,0.0,0.0,94,0.00,,,0.00,Wunderground v.1.15,2013-02-14 08:26:00,
2013-02-14 00:31:00,34.4,32.9,30.55,SE,145,0.0,0.0,94,0.00,,,0.00,Wunderground v.1.15,2013-02-14 08:31:00,
2013-02-14 00:37:00,34.4,32.9,30.55,SE,145,0.0,0.0,94,0.00,,,0.00,Wunderground v.1.15,2013-02-14 08:37:00,
2013-02-14 00:42:00,34.4,32.9,30.55,SE,145,0.0,0.0,94,0.00,,,0.00,Wunderground v.1.15,2013-02-14 08:42:00,
2013-02-14 00:47:00,34.4,33.1,30.55,SE,145,0.0,0.0,95,0.00,,,0.00,Wunderground v.1.15,2013-02-14 08:47:00,
2013-02-14 00:53:00,34.5,33.2,30.54,SE,145,0.0,0.0,95,0.00,,,0.00,Wunderground v.1.15,2013-02-14 08:53:00,
2013-02-14 00:58:00,34.9,33.6,30.54,SE,145,0.0,0.0,95,0.00,,,0.00,Wunderground v.1.15,2013-02-14 08:58:00,
2013-02-14 01:03:00,34.9,33.6,30.54,SE,145,0.0,1.0,95,0.00,,,0.00,Wunderground v.1.15,2013-02-14 09:03:00,
2013-02-14 01:09:00,34.4,32.9,30.54,SE,145,0.0,2.0,94,0.00,,,0.00,Wunderground v.1.15,2013-02-14 09:09:00,
2013-02-14 01:14:00,34.4,33.1,30.54,SE,145,0.0,0.0,95,0.00,,,0.00,Wunderground v.1.15,2013-02-14 09:14:00,
2013-02-14 01:19:00,34.4,33.1,30.54,SE,145,0.0,0.0,95,0.00,,,0.00,Wunderground v.1.15,2013-02-14 09:19:00,
2013-02-14 01:25:00,34.4,33.1,30.55,SE,145,0.0,0.0,95,0.00,,,0.00,Wunderground v.1.15,2013-02-14 09:25:00,
2013-02-14 01:30:00,34.4,33.1,30.55,SE,145,0.0,0.0,95,0.00,,,0.00,Wunderground v.1.15,2013-02-14 09:30:00,
2013-02-14 01:35:00,34.4,33.1,30.55,SE,145,0.0,0.0,95,0.00,,,0.00,Wunderground v.1.15,2013-02-14 09:35:00,
2013-02-14 01:41:00,34.4,33.1,30.55,SE,145,0.0,0.0,95,0.00,,,0.00,Wunderground v.1.15,2013-02-14 09:41:00,
2013-02-14 01:46:00,34.4,33.1,30.55,SE,145,0.0,0.0,95,0.00,,,0.00,Wunderground v.1.15,2013-02-14 09:46:00,
2013-02-14 01:51:00,34.4,33.1,30.55,SE,145,0.0,0.0,95,0.00,,,0.00,Wunderground v.1.15,2013-02-14 09:51:00,
2013-02-14 01:57:00,34.4,33.1,30.55,SE,145,0.0,0.0,95,0.00,,,0.00,Wunderground v.1.15,2013-02-14 09:57:00,
2013-02-14 02:02:00,34.4,33.1,30.55,SE,145,0.0,0.0,95,0.00,,,0.00,Wunderground v.1.15,2013-02-14 10:02:00,
2013-02-14 10:53:00,41.7,39.8,30.57,ESE,110,1.0,2.0,93,0.00,,,0.00,Wunderground v.1.15,2013-02-14 18:53:00,
2013-02-14 10:58:00,41.8,39.6,30.57,ESE,110,1.0,2.0,92,0.00,,,0.00,Wunderground v.1.15,2013-02-14 18:58:00,
2013-02-14 11:03:00,41.9,39.7,30.57,ESE,109,1.0,2.0,92,0.00,,,0.00,Wunderground v.1.15,2013-02-14 19:03:00,
2013-02-14 11:09:00,42.1,39.9,30.57,ESE,109,1.0,2.0,92,0.00,,,0.00,Wunderground v.1.15,2013-02-14 19:09:00,
2013-02-14 11:14:00,42.2,40.0,30.57,ESE,109,1.0,2.0,92,0.00,,,0.00,Wunderground v.1.15,2013-02-14 19:14:00,
2013-02-14 11:19:00,42.3,40.1,30.58,ESE,106,1.0,2.0,92,0.00,,,0.00,Wunderground v.1.15,2013-02-14 19:19:00,
2013-02-14 11:25:00,42.4,40.2,30.58,ESE,106,1.0,2.0,92,0.00,,,0.00,Wunderground v.1.15,2013-02-14 19:25:00,
2013-02-14 11:30:00,42.5,40.1,30.58,ESE,106,0.0,0.0,91,0.00,,,0.00,Wunderground v.1.15,2013-02-14 19:30:00,
2013-02-14 11:36:00,42.9,40.7,30.57,ESE,106,0.0,3.0,92,0.00,,,0.00,Wunderground v.1.15,2013-02-14 19:36:00,
2013-02-14 11:41:00,43.2,41.0,30.58,ESE,106,0.0,3.0,92,0.00,,,0.00,Wunderground v.1.15,2013-02-14 19:41:00,
2013-02-14 11:46:00,43.6,41.4,30.58,ESE,106,0.0,3.0,92,0.00,,,0.00,Wunderground v.1.15,2013-02-14 19:46:00,
2013-02-14 11:52:00,44.2,42.0,30.57,ESE,106,0.0,3.0,92,0.00,,,0.00,Wunderground v.1.15,2013-02-14 19:52:00,
2013-02-14 11:57:00,44.6,42.4,30.57,ESE,106,0.0,3.0,92,0.00,,,0.00,Wunderground v.1.15,2013-02-14 19:57:00,
2013-02-14 12:02:00,44.5,41.7,30.57,ESE,106,0.0,3.0,90,0.00,,,0.00,Wunderground v.1.15,2013-02-14 20:02:00,
2013-02-14 12:08:00,44.5,41.5,30.57,ESE,106,1.0,3.0,89,0.00,,,0.00,Wunderground v.1.15,2013-02-14 20:08:00,
2013-02-14 12:14:00,44.7,41.7,30.57,ESE,106,2.0,2.0,89,0.00,,,0.00,Wunderground v.1.15,2013-02-14 20:14:00,
2013-02-14 12:19:00,44.8,41.8,30.57,ESE,111,2.0,4.0,89,0.00,,,0.00,Wunderground v.1.15,2013-02-14 20:19:00,
2013-02-14 12:24:00,45.0,42.0,30.57,ESE,103,2.0,3.0,89,0.00,,,0.00,Wunderground v.1.15,2013-02-14 20:24:00,
2013-02-14 12:29:00,45.0,41.7,30.56,East,94,3.0,4.0,88,0.00,,,0.00,Wunderground v.1.15,2013-02-14 20:29:00,
2013-02-14 12:35:00,45.2,42.2,30.57,East,101,3.0,3.0,89,0.00,,,0.00,Wunderground v.1.15,2013-02-14 20:35:00,
2013-02-14 12:40:00,45.2,41.9,30.56,East,88,2.0,3.0,88,0.00,,,0.00,Wunderground v.1.15,2013-02-14 20:40:00,
2013-02-14 12:45:00,45.4,42.1,30.56,East,86,2.0,3.0,88,0.00,,,0.00,Wunderground v.1.15,2013-02-14 20:45:00,
2013-02-14 12:51:00,45.5,42.2,30.56,East,95,2.0,4.0,88,0.00,,,0.00,Wunderground v.1.15,2013-02-14 20:51:00,
2013-02-14 12:56:00,45.7,42.3,30.56,East,97,2.0,4.0,88,0.00,,,0.00,Wunderground v.1.15,2013-02-14 20:56:00,
2013-02-14 13:01:00,45.8,42.2,30.56,East,84,3.0,4.0,87,0.00,,,0.00,Wunderground v.1.15,2013-02-14 21:01:00,
2013-02-14 13:07:00,46.0,42.3,30.56,East,86,3.0,5.0,87,0.00,,,0.00,Wunderground v.1.15,2013-02-14 21:07:00,
2013-02-14 13:12:00,46.0,42.3,30.56,East,99,3.0,3.0,87,0.00,,,0.00,Wunderground v.1.15,2013-02-14 21:12:00,
2013-02-14 13:17:00,46.1,42.4,30.56,East,101,3.0,4.0,87,0.00,,,0.00,Wunderground v.1.15,2013-02-14 21:17:00,
2013-02-14 13:23:00,46.1,42.4,30.56,SE,130,2.0,3.0,87,0.00,,,0.00,Wunderground v.1.15,2013-02-14 21:23:00,
2013-02-14 13:28:00,46.1,42.1,30.56,East,98,2.0,4.0,86,0.00,,,0.00,Wunderground v.1.15,2013-02-14 21:28:00,
2013-02-14 13:34:00,46.0,42.0,30.56,East,85,3.0,4.0,86,0.00,,,0.00,Wunderground v.1.15,2013-02-14 21:34:00,
2013-02-14 13:39:00,45.9,42.2,30.56,East,80,4.0,4.0,87,0.00,,,0.00,Wunderground v.1.15,2013-02-14 21:39:00,
2013-02-14 13:44:00,45.8,42.4,30.56,East,81,3.0,5.0,88,0.00,,,0.00,Wunderground v.1.15,2013-02-14 21:44:00,
2013-02-14 13:49:00,45.8,42.7,30.56,East,93,3.0,5.0,89,0.00,,,0.00,Wunderground v.1.15,2013-02-14 21:49:00,
2013-02-14 13:55:00,45.7,42.6,30.56,East,84,3.0,4.0,89,0.00,,,0.00,Wunderground v.1.15,2013-02-14 21:55:00,
2013-02-14 14:00:00,45.6,42.5,30.56,ENE,73,3.0,4.0,89,0.00,,,0.00,Wunderground v.1.15,2013-02-14 22:00:00,
2013-02-14 14:05:00,45.6,42.5,30.56,East,99,3.0,4.0,89,0.00,,,0.00,Wunderground v.1.15,2013-02-14 22:05:00,
2013-02-14 14:11:00,45.6,42.8,30.56,ESE,107,3.0,3.0,90,0.00,,,0.00,Wunderground v.1.15,2013-02-14 22:11:00,
2013-02-14 14:16:00,45.6,42.5,30.56,East,96,2.0,3.0,89,0.00,,,0.00,Wunderground v.1.15,2013-02-14 22:16:00,
2013-02-14 14:21:00,45.7,42.9,30.56,East,98,2.0,3.0,90,0.00,,,0.00,Wunderground v.1.15,2013-02-14 22:21:00,
2013-02-14 14:27:00,45.8,42.7,30.56,East,98,1.0,3.0,89,0.00,,,0.00,Wunderground v.1.15,2013-02-14 22:27:00,
2013-02-14 14:32:00,45.8,42.7,30.56,East,98,1.0,2.0,89,0.00,,,0.00,Wunderground v.1.15,2013-02-14 22:32:00,
2013-02-14 14:37:00,45.9,42.8,30.56,East,98,0.0,2.0,89,0.00,,,0.00,Wunderground v.1.15,2013-02-14 22:37:00,
2013-02-14 14:43:00,46.0,43.2,30.56,East,98,0.0,2.0,90,0.00,,,0.00,Wunderground v.1.15,2013-02-14 22:43:00,
2013-02-14 14:48:00,46.0,42.9,30.56,East,98,1.0,2.0,89,0.00,,,0.00,Wunderground v.1.15,2013-02-14 22:48:00,
2013-02-14 14:53:00,46.1,43.3,30.56,East,98,1.0,2.0,90,0.00,,,0.00,Wunderground v.1.15,2013-02-14 22:53:00,
2013-02-14 14:59:00,46.0,43.2,30.56,East,98,0.0,3.0,90,0.00,,,0.00,Wunderground v.1.15,2013-02-14 22:59:00,
2013-02-14 15:04:00,45.9,43.4,30.56,East,98,1.0,2.0,91,0.00,,,0.00,Wunderground v.1.15,2013-02-14 23:04:00,
2013-02-14 15:09:00,45.9,43.4,30.56,East,98,1.0,2.0,91,0.00,,,0.00,Wunderground v.1.15,2013-02-14 23:09:00,
2013-02-14 15:15:00,45.8,43.6,30.56,East,98,1.0,2.0,92,0.00,,,0.00,Wunderground v.1.15,2013-02-14 23:15:00,
2013-02-14 15:20:00,45.8,43.6,30.55,East,98,1.0,2.0,92,0.00,,,0.00,Wunderground v.1.15,2013-02-14 23:20:00,
2013-02-14 15:25:00,45.7,43.5,30.56,East,98,1.0,2.0,92,0.00,,,0.00,Wunderground v.1.15,2013-02-14 23:25:00,
2013-02-14 15:31:00,45.7,43.5,30.55,East,98,1.0,2.0,92,0.00,,,0.00,Wunderground v.1.15,2013-02-14 23:31:00,
2013-02-14 15:36:00,45.6,43.4,30.55,East,98,1.0,2.0,92,0.00,,,0.00,Wunderground v.1.15,2013-02-14 23:36:00,
2013-02-14 15:41:00,45.6,43.4,30.55,East,98,1.0,2.0,92,0.00,,,0.00,Wunderground v.1.15,2013-02-14 23:41:00,
2013-02-14 15:47:00,45.7,43.5,30.55,East,98,1.0,2.0,92,0.00,,,0.00,Wunderground v.1.15,2013-02-14 23:47:00,
2013-02-14 15:52:00,45.7,43.5,30.55,East,98,1.0,2.0,92,0.00,,,0.00,Wunderground v.1.15,2013-02-14 23:52:00,
2013-02-14 15:57:00,45.8,43.6,30.55,East,98,0.0,2.0,92,0.00,,,0.00,Wunderground v.1.15,2013-02-14 23:57:00,
2013-02-14 16:03:00,45.8,43.6,30.55,East,98,0.0,2.0,92,0.00,,,0.00,Wunderground v.1.15,2013-02-15 00:03:00,
2013-02-14 16:08:00,45.9,43.7,30.55,East,98,0.0,2.0,92,0.00,,,0.00,Wunderground v.1.15,2013-02-15 00:08:00,
2013-02-14 16:13:00,45.9,43.7,30.55,East,98,0.0,2.0,92,0.00,,,0.00,Wunderground v.1.15,2013-02-15 00:13:00,
2013-02-14 16:19:00,45.9,44.0,30.55,East,98,0.0,2.0,93,0.00,,,0.00,Wunderground v.1.15,2013-02-15 00:19:00,
2013-02-14 16:24:00,46.0,44.1,30.55,East,98,0.0,2.0,93,0.00,,,0.00,Wunderground v.1.15,2013-02-15 00:24:00,
2013-02-14 16:29:00,46.1,43.9,30.55,East,98,0.0,2.0,92,0.00,,,0.00,Wunderground v.1.15,2013-02-15 00:29:00,
2013-02-14 16:35:00,46.2,44.0,30.55,East,97,0.0,2.0,92,0.00,,,0.00,Wunderground v.1.15,2013-02-15 00:35:00,
2013-02-14 16:40:00,46.2,44.0,30.54,East,97,0.0,2.0,92,0.00,,,0.00,Wunderground v.1.15,2013-02-15 00:40:00,
2013-02-14 16:45:00,46.3,44.1,30.54,East,97,0.0,2.0,92,0.00,,,0.00,Wunderground v.1.15,2013-02-15 00:45:00,
2013-02-14 16:51:00,46.4,44.2,30.54,East,97,0.0,2.0,92,0.00,,,0.00,Wunderground v.1.15,2013-02-15 00:51:00,
2013-02-14 16:56:00,46.5,44.0,30.54,East,97,0.0,2.0,91,0.00,,,0.00,Wunderground v.1.15,2013-02-15 00:56:00,
2013-02-14 17:01:00,46.5,44.0,30.54,East,97,0.0,2.0,91,0.00,,,0.00,Wunderground v.1.15,2013-02-15 01:01:00,
2013-02-14 17:07:00,46.6,44.1,30.54,East,97,0.0,2.0,91,0.00,,,0.00,Wunderground v.1.15,2013-02-15 01:07:00,
2013-02-14 17:12:00,46.7,44.2,30.54,East,97,0.0,2.0,91,0.00,,,0.00,Wunderground v.1.15,2013-02-15 01:12:00,
2013-02-14 17:17:00,46.7,44.2,30.54,East,97,0.0,2.0,91,0.00,,,0.00,Wunderground v.1.15,2013-02-15 01:17:00,
2013-02-14 17:23:00,46.7,44.2,30.54,East,97,0.0,2.0,91,0.00,,,0.00,Wunderground v.1.15,2013-02-15 01:23:00,
2013-02-14 17:28:00,46.7,44.2,30.54,East,97,0.0,2.0,91,0.00,,,0.00,Wunderground v.1.15,2013-02-15 01:28:00,
2013-02-14 17:33:00,46.6,44.1,30.54,East,97,0.0,2.0,91,0.00,,,0.00,Wunderground v.1.15,2013-02-15 01:33:00,
2013-02-14 17:39:00,46.5,43.7,30.54,East,97,0.0,2.0,90,0.00,,,0.00,Wunderground v.1.15,2013-02-15 01:39:00,
2013-02-14 17:44:00,46.4,43.6,30.54,East,97,0.0,2.0,90,0.00,,,0.00,Wunderground v.1.15,2013-02-15 01:44:00,
2013-02-14 17:49:00,46.2,43.4,30.54,East,97,0.0,2.0,90,0.00,,,0.00,Wunderground v.1.15,2013-02-15 01:49:00,
2013-02-14 17:54:00,46.1,43.3,30.54,East,97,0.0,2.0,90,0.00,,,0.00,Wunderground v.1.15,2013-02-15 01:54:00,
2013-02-14 18:00:00,45.9,43.1,30.54,East,97,0.0,2.0,90,0.00,,,0.00,Wunderground v.1.15,2013-02-15 02:00:00,
2013-02-14 18:05:00,45.8,43.3,30.54,East,97,0.0,2.0,91,0.00,,,0.00,Wunderground v.1.15,2013-02-15 02:05:00,
2013-02-14 18:11:00,45.7,43.2,30.54,East,97,0.0,0.0,91,0.00,,,0.00,Wunderground v.1.15,2013-02-15 02:11:00,
2013-02-14 18:17:00,45.7,43.2,30.53,East,97,0.0,0.0,91,0.00,,,0.00,Wunderground v.1.15,2013-02-15 02:17:00,
2013-02-14 18:22:00,45.4,42.9,30.53,East,97,0.0,0.0,91,0.00,,,0.00,Wunderground v.1.15,2013-02-15 02:22:00,
2013-02-14 18:27:00,45.0,42.5,30.53,East,97,0.0,0.0,91,0.00,,,0.00,Wunderground v.1.15,2013-02-15 02:27:00,
2013-02-14 18:32:00,44.8,42.3,30.53,East,97,0.0,0.0,91,0.00,,,0.00,Wunderground v.1.15,2013-02-15 02:32:00,
2013-02-14 18:38:00,44.6,42.1,30.53,East,97,0.0,0.0,91,0.00,,,0.00,Wunderground v.1.15,2013-02-15 02:38:00,
2013-02-14 18:43:00,44.4,41.9,30.53,East,97,0.0,0.0,91,0.00,,,0.00,Wunderground v.1.15,2013-02-15 02:43:00,
2013-02-14 18:48:00,44.2,41.7,30.53,East,97,0.0,0.0,91,0.00,,,0.00,Wunderground v.1.15,2013-02-15 02:48:00,
2013-02-14 18:54:00,43.8,41.3,30.53,East,97,0.0,0.0,91,0.00,,,0.00,Wunderground v.1.15,2013-02-15 02:54:00,
2013-02-14 18:59:00,43.3,41.1,30.53,East,97,0.0,0.0,92,0.00,,,0.00,Wunderground v.1.15,2013-02-15 02:59:00,
2013-02-14 19:05:00,42.8,40.6,30.53,East,97,0.0,1.0,92,0.00,,,0.00,Wunderground v.1.15,2013-02-15 03:05:00,
2013-02-14 19:10:00,42.4,40.2,30.53,East,97,0.0,1.0,92,0.00,,,0.00,Wunderground v.1.15,2013-02-15 03:10:00,
2013-02-14 19:15:00,42.2,40.3,30.53,East,97,0.0,1.0,93,0.00,,,0.00,Wunderground v.1.15,2013-02-15 03:15:00,
2013-02-14 19:20:00,42.2,40.3,30.53,East,97,0.0,1.0,93,0.00,,,0.00,Wunderground v.1.15,2013-02-15 03:20:00,
2013-02-14 19:26:00,42.1,40.2,30.53,East,97,0.0,1.0,93,0.00,,,0.00,Wunderground v.1.15,2013-02-15 03:26:00,
2013-02-14 19:31:00,42.0,40.1,30.53,East,97,0.0,1.0,93,0.00,,,0.00,Wunderground v.1.15,2013-02-15 03:31:00,
2013-02-14 19:37:00,42.0,40.4,30.53,East,97,0.0,1.0,94,0.00,,,0.00,Wunderground v.1.15,2013-02-15 03:37:00,
2013-02-14 19:42:00,42.0,40.4,30.53,East,97,0.0,1.0,94,0.00,,,0.00,Wunderground v.1.15,2013-02-15 03:42:00,
2013-02-14 19:48:00,42.0,40.4,30.53,East,97,0.0,1.0,94,0.00,,,0.00,Wunderground v.1.15,2013-02-15 03:48:00,
2013-02-14 19:53:00,42.0,40.4,30.54,East,97,0.0,1.0,94,0.00,,,0.00,Wunderground v.1.15,2013-02-15 03:53:00,
2013-02-14 19:58:00,42.1,40.5,30.53,East,97,0.0,1.0,94,0.00,,,0.00,Wunderground v.1.15,2013-02-15 03:58:00,
2013-02-14 20:03:00,42.2,40.6,30.54,East,97,0.0,1.0,94,0.00,,,0.00,Wunderground v.1.15,2013-02-15 04:03:00,
2013-02-14 20:09:00,42.3,40.7,30.54,East,97,0.0,1.0,94,0.00,,,0.00,Wunderground v.1.15,2013-02-15 04:09:00,
2013-02-14 20:14:00,42.4,40.8,30.54,East,97,0.0,1.0,94,0.00,,,0.00,Wunderground v.1.15,2013-02-15 04:14:00,
2013-02-14 20:20:00,42.2,40.6,30.54,East,97,0.0,1.0,94,0.00,,,0.00,Wunderground v.1.15,2013-02-15 04:20:00,
2013-02-14 20:25:00,42.1,40.5,30.54,East,97,0.0,1.0,94,0.00,,,0.00,Wunderground v.1.15,2013-02-15 04:25:00,
2013-02-14 20:30:00,42.3,40.7,30.54,East,97,0.0,1.0,94,0.00,,,0.00,Wunderground v.1.15,2013-02-15 04:30:00,
2013-02-14 20:36:00,42.4,41.1,30.54,East,97,0.0,2.0,95,0.00,,,0.00,Wunderground v.1.15,2013-02-15 04:36:00,
2013-02-14 20:41:00,42.6,41.3,30.54,East,97,0.0,1.0,95,0.00,,,0.00,Wunderground v.1.15,2013-02-15 04:41:00,
2013-02-14 20:46:00,42.7,41.4,30.54,East,97,0.0,1.0,95,0.00,,,0.00,Wunderground v.1.15,2013-02-15 04:46:00,
2013-02-14 20:52:00,42.9,41.6,30.54,East,97,0.0,1.0,95,0.00,,,0.00,Wunderground v.1.15,2013-02-15 04:52:00,
2013-02-14 20:57:00,43.1,41.8,30.54,East,97,0.0,1.0,95,0.00,,,0.00,Wunderground v.1.15,2013-02-15 04:57:00,
2013-02-14 21:00:00,43.1,41.8,30.54,East,97,0.0,1.0,95,0.00,,,0.00,Wunderground v.1.15,2013-02-15 05:00:00,
2013-02-14 21:01:00,43.1,41.8,30.54,East,97,0.0,1.0,95,0.00,,,0.00,Wunderground v.1.15,2013-02-15 05:01:00,
2013-02-14 21:03:00,43.2,41.9,30.54,East,97,0.0,1.0,95,0.00,,,0.00,Wunderground v.1.15,2013-02-15 05:03:00,
2013-02-14 21:07:00,43.3,42.0,30.54,East,97,0.0,1.0,95,0.00,,,0.00,Wunderground v.1.15,2013-02-15 05:07:00,
2013-02-14 21:12:00,43.3,42.0,30.54,East,97,0.0,1.0,95,0.00,,,0.00,Wunderground v.1.15,2013-02-15 05:12:00,
2013-02-14 21:18:00,43.4,42.1,30.54,East,97,0.0,1.0,95,0.00,,,0.00,Wunderground v.1.15,2013-02-15 05:18:00,
2013-02-14 21:23:00,43.4,42.1,30.55,East,97,0.0,1.0,95,0.00,,,0.00,Wunderground v.1.15,2013-02-15 05:23:00,
2013-02-14 21:28:00,43.5,42.2,30.55,East,97,0.0,1.0,95,0.00,,,0.00,Wunderground v.1.15,2013-02-15 05:28:00,
2013-02-14 21:34:00,43.6,42.3,30.55,East,97,0.0,1.0,95,0.00,,,0.00,Wunderground v.1.15,2013-02-15 05:34:00,
2013-02-14 21:39:00,43.7,42.4,30.55,East,97,0.0,1.0,95,0.00,,,0.00,Wunderground v.1.15,2013-02-15 05:39:00,
2013-02-14 21:44:00,43.7,42.4,30.55,East,97,0.0,1.0,95,0.00,,,0.00,Wunderground v.1.15,2013-02-15 05:44:00,
2013-02-14 21:50:00,43.8,42.5,30.55,East,97,0.0,1.0,95,0.00,,,0.00,Wunderground v.1.15,2013-02-15 05:50:00,
2013-02-14 21:55:00,43.8,42.5,30.55,East,97,0.0,1.0,95,0.00,,,0.00,Wunderground v.1.15,2013-02-15 05:55:00,
2013-02-14 22:00:00,43.9,42.6,30.55,East,97,0.0,1.0,95,0.00,,,0.00,Wunderground v.1.15,2013-02-15 06:00:00,
2013-02-14 22:06:00,43.9,42.6,30.55,East,97,0.0,1.0,95,0.00,,,0.00,Wunderground v.1.15,2013-02-15 06:06:00,
2013-02-14 22:11:00,43.9,42.6,30.55,East,97,0.0,1.0,95,0.00,,,0.00,Wunderground v.1.15,2013-02-15 06:11:00,
2013-02-14 22:17:00,44.0,42.7,30.55,East,97,0.0,1.0,95,0.00,,,0.00,Wunderground v.1.15,2013-02-15 06:17:00,
2013-02-14 22:22:00,44.0,42.7,30.54,East,97,0.0,1.0,95,0.00,,,0.00,Wunderground v.1.15,2013-02-15 06:22:00,
2013-02-14 22:27:00,44.0,42.7,30.54,East,97,0.0,1.0,95,0.00,,,0.00,Wunderground v.1.15,2013-02-15 06:27:00,
2013-02-14 22:33:00,43.9,42.6,30.54,East,97,0.0,1.0,95,0.00,,,0.00,Wunderground v.1.15,2013-02-15 06:33:00,
2013-02-14 22:38:00,44.0,42.7,30.54,East,97,0.0,1.0,95,0.00,,,0.00,Wunderground v.1.15,2013-02-15 06:38:00,
2013-02-14 22:43:00,44.0,42.7,30.54,East,97,0.0,1.0,95,0.00,,,0.00,Wunderground v.1.15,2013-02-15 06:43:00,
2013-02-14 22:48:00,44.0,42.7,30.54,East,97,0.0,1.0,95,0.00,,,0.00,Wunderground v.1.15,2013-02-15 06:48:00,
2013-02-14 22:54:00,44.0,42.7,30.54,East,97,0.0,1.0,95,0.00,,,0.00,Wunderground v.1.15,2013-02-15 06:54:00,
2013-02-14 22:59:00,44.0,42.7,30.54,East,97,0.0,1.0,95,0.00,,,0.00,Wunderground v.1.15,2013-02-15 06:59:00,
2013-02-14 23:05:00,43.9,42.6,30.54,East,97,0.0,1.0,95,0.00,,,0.00,Wunderground v.1.15,2013-02-15 07:05:00,
2013-02-14 23:10:00,43.8,42.5,30.54,East,97,0.0,1.0,95,0.00,,,0.00,Wunderground v.1.15,2013-02-15 07:10:00,
2013-02-14 23:15:00,43.7,42.4,30.54,East,97,0.0,1.0,95,0.00,,,0.00,Wunderground v.1.15,2013-02-15 07:15:00,
2013-02-14 23:21:00,43.6,42.3,30.54,East,97,0.0,1.0,95,0.00,,,0.00,Wunderground v.1.15,2013-02-15 07:21:00,
2013-02-14 23:26:00,43.6,42.3,30.53,East,97,0.0,1.0,95,0.00,,,0.00,Wunderground v.1.15,2013-02-15 07:26:00,
2013-02-14 23:31:00,43.4,42.1,30.53,East,97,0.0,1.0,95,0.00,,,0.00,Wunderground v.1.15,2013-02-15 07:31:00,
2013-02-14 23:36:00,43.3,42.0,30.53,East,97,0.0,1.0,95,0.00,,,0.00,Wunderground v.1.15,2013-02-15 07:36:00,